Time;durP1;ratioP1;P1;durP2;ratioP2;P2;SDS_P1;SDS_P2;PMS_P1;PMS_P2;Temp;Humidity;BMP_temperature;BMP_pressure;BME280_temperature;BME280_humidity;BME280_pressure;Samples;Min_cycle;Max_cycle;Signal;HPM_P1;HPM_P2
2023/01/07 00:01:30;;;;;;;36.80;21.35;;;;;;;7.01;100.00;101435.72;5005060;28;20500;-82
2023/01/07 00:04:00;;;;;;;38.53;22.48;;;;;;;7.01;100.00;101442.66;5007727;28;20061;-83
2023/01/07 00:06:29;;;;;;;43.13;22.23;;;;;;;7.07;100.00;101439.31;4988100;28;20045;-83
2023/01/07 00:08:57;;;;;;;39.90;23.20;;;;;;;7.09;100.00;101435.91;5005644;28;20053;-83
2023/01/07 00:11:27;;;;;;;41.78;23.77;;;;;;;7.13;100.00;101427.28;4989594;28;20599;-81
2023/01/07 00:13:56;;;;;;;42.25;23.80;;;;;;;7.17;100.00;101430.88;4998735;28;20050;-84
2023/01/07 00:16:27;;;;;;;46.42;24.65;;;;;;;7.21;100.00;101430.09;4993052;28;20420;-84
2023/01/07 00:18:58;;;;;;;47.00;23.55;;;;;;;7.26;100.00;101427.59;5007706;28;20042;-84
2023/01/07 00:21:26;;;;;;;44.08;25.63;;;;;;;7.29;100.00;101425.94;5013598;28;20037;-84
2023/01/07 00:24:00;;;;;;;41.13;24.80;;;;;;;7.34;100.00;101423.44;5007889;28;20049;-84
2023/01/07 00:26:36;;;;;;;47.17;27.73;;;;;;;7.38;100.00;101417.44;4996207;28;20380;-84
2023/01/07 00:29:04;;;;;;;46.17;25.27;;;;;;;7.44;100.00;101427.19;5000627;28;20510;-84
2023/01/07 00:31:35;;;;;;;51.25;27.58;;;;;;;7.47;100.00;101420.28;4979613;28;20438;-84
2023/01/07 00:36:33;;;;;;;49.22;27.52;;;;;;;7.59;100.00;101422.31;5011264;28;20058;-83
2023/01/07 00:39:06;;;;;;;50.90;29.50;;;;;;;7.65;100.00;101414.59;4997056;28;20517;-84
2023/01/07 00:41:34;;;;;;;54.90;28.52;;;;;;;7.70;100.00;101415.59;4996170;28;20049;-84
2023/01/07 00:44:02;;;;;;;47.50;27.73;;;;;;;7.75;100.00;101413.97;5002069;28;20046;-84
2023/01/07 00:46:29;;;;;;;51.38;27.52;;;;;;;7.80;100.00;101403.59;4993290;28;20085;-83
2023/01/07 00:49:00;;;;;;;53.10;28.73;;;;;;;7.84;100.00;101402.78;5014921;28;20034;-84
2023/01/07 00:51:27;;;;;;;51.78;28.63;;;;;;;7.88;100.00;101407.28;5010766;28;20084;-84
2023/01/07 00:53:55;;;;;;;47.55;27.27;;;;;;;7.91;100.00;101401.22;5004146;28;20049;-84
2023/01/07 00:56:22;;;;;;;51.85;27.48;;;;;;;7.94;100.00;101399.56;4981113;28;20065;-84
2023/01/07 00:58:51;;;;;;;51.13;28.55;;;;;;;7.98;100.00;101406.63;4998970;28;20042;-84
2023/01/07 01:01:18;;;;;;;44.08;26.00;;;;;;;8.03;100.00;101404.09;4997670;28;20080;-83
2023/01/07 01:03:46;;;;;;;43.42;26.08;;;;;;;8.07;100.00;101395.47;4979557;28;20049;-83
2023/01/07 01:06:15;;;;;;;45.90;26.33;;;;;;;8.12;100.00;101399.06;5011123;28;20050;-83
2023/01/07 01:08:44;;;;;;;47.03;27.80;;;;;;;8.15;100.00;101388.63;4999457;28;20065;-84
2023/01/07 01:11:14;;;;;;;43.65;25.67;;;;;;;8.17;100.00;101386.94;4999774;28;20054;-83
2023/01/07 01:13:43;;;;;;;50.93;28.10;;;;;;;8.20;100.00;101384.38;4999008;28;20046;-84
2023/01/07 01:16:16;;;;;;;49.63;27.45;;;;;;;8.24;100.00;101392.31;5016654;28;20050;-83
2023/01/07 01:18:44;;;;;;;49.22;27.20;;;;;;;8.25;100.00;101380.97;4993135;28;20053;-84
2023/01/07 01:21:14;;;;;;;55.05;27.40;;;;;;;8.29;100.00;101380.16;4994064;28;20049;-84
2023/01/07 01:23:42;;;;;;;46.00;25.77;;;;;;;8.31;100.00;101370.59;4995938;28;20057;-83
2023/01/07 01:26:15;;;;;;;45.00;26.60;;;;;;;8.32;100.00;101375.00;4987543;28;20512;-84
2023/01/07 01:28:44;;;;;;;48.10;26.55;;;;;;;8.34;100.00;101373.28;5031699;28;20395;-84
2023/01/07 01:31:15;;;;;;;49.10;26.80;;;;;;;8.36;100.00;101372.44;5030507;28;20491;-84
2023/01/07 01:33:47;;;;;;;45.72;25.77;;;;;;;8.38;100.00;101372.50;4996148;28;20034;-83
2023/01/07 01:36:16;;;;;;;44.72;25.30;;;;;;;8.40;100.00;101378.66;4990929;28;20053;-84
2023/01/07 01:38:43;;;;;;;47.60;24.90;;;;;;;8.42;100.00;101382.22;5006235;28;20045;-83
2023/01/07 01:41:15;;;;;;;44.58;24.38;;;;;;;8.45;100.00;101373.50;5007848;28;20064;-83
2023/01/07 01:43:44;;;;;;;50.10;26.90;;;;;;;8.47;100.00;101372.72;5014274;28;20046;-82
2023/01/07 01:46:36;;;;;;;47.17;23.92;;;;;;;8.50;100.00;101375.38;4996769;28;20057;-84
2023/01/07 01:49:09;;;;;;;44.20;24.30;;;;;;;8.51;100.00;101376.28;5028261;28;20050;-83
2023/01/07 01:51:40;;;;;;;55.63;26.33;;;;;;;8.52;100.00;101367.53;5008309;28;20050;-84
2023/01/07 01:54:10;;;;;;;;;;;;;;;8.53;100.00;101364.06;4994941;28;20049;-84
2023/01/07 01:56:42;;;;;;;48.67;25.50;;;;;;;8.55;100.00;101367.59;5007164;28;19921;-84
2023/01/07 01:59:15;;;;;;;43.45;24.15;;;;;;;8.56;100.00;101370.28;5013285;28;20061;-83
2023/01/07 02:01:42;;;;;;;48.55;26.30;;;;;;;8.59;100.00;101364.19;5011713;28;20664;-83
2023/01/07 02:04:17;;;;;;;46.10;25.17;;;;;;;8.61;100.00;101357.22;4994443;28;20054;-83
2023/01/07 02:07:01;;;;;;;49.72;25.42;;;;;;;8.66;100.00;101366.06;4993604;28;20050;-84
2023/01/07 02:09:30;;;;;;;53.30;25.70;;;;;;;8.68;100.00;101363.50;4994680;28;20056;-84
2023/01/07 02:12:13;;;;;;;41.47;24.02;;;;;;;8.70;100.00;101361.78;4986415;28;20052;-83
2023/01/07 02:15:02;;;;;;;51.97;25.65;;;;;;;8.75;100.00;101370.59;4995435;28;20050;-83
2023/01/07 02:17:46;;;;;;;41.67;23.73;;;;;;;8.77;100.00;101372.44;5018867;28;20033;-83
2023/01/07 02:20:20;;;;;;;48.75;25.20;;;;;;;8.81;100.00;101364.56;5005220;28;20054;-83
2023/01/07 02:23:03;;;;;;;42.15;23.42;;;;;;;8.82;100.00;101355.84;4991699;28;20042;-83
2023/01/07 02:25:49;;;;;;;45.65;24.92;;;;;;;8.83;100.00;101352.34;5021815;28;20411;-84
2023/01/07 02:28:19;;;;;;;48.10;24.58;;;;;;;8.86;100.00;101360.31;4994068;28;20049;-84
2023/01/07 02:31:02;;;;;;;40.90;23.75;;;;;;;8.87;100.00;101354.19;4996654;28;20060;-83
2023/01/07 02:33:40;;;;;;;44.40;25.88;;;;;;;8.89;100.00;101358.63;5011359;28;20041;-82
2023/01/07 02:36:40;;;;;;;52.85;26.88;;;;;;;8.91;100.00;101354.28;5015025;28;20446;-84
2023/01/07 02:39:25;;;;;;;41.78;21.80;;;;;;;8.92;100.00;101358.69;4990906;28;20062;-83
2023/01/07 02:42:03;;;;;;;46.17;24.80;;;;;;;8.94;100.00;101351.72;5026239;28;20054;-84
2023/01/07 02:44:43;;;;;;;51.80;25.27;;;;;;;8.96;100.00;101355.25;5014067;28;20050;-83
2023/01/07 02:47:23;;;;;;;46.58;24.52;;;;;;;8.98;100.00;101342.13;5009524;28;20058;-83
2023/01/07 02:49:51;;;;;;;47.40;24.33;;;;;;;8.98;100.00;101350.91;4982980;28;20045;-83
2023/01/07 02:52:20;;;;;;;48.35;24.75;;;;;;;9.00;100.00;101344.78;4990689;28;20069;-83
2023/01/07 02:55:02;;;;;;;43.33;23.95;;;;;;;9.01;100.00;101347.44;5020445;28;20050;-83
2023/01/07 02:57:36;;;;;;;45.80;24.80;;;;;;;9.02;100.00;101353.56;5007718;28;20467;-83
2023/01/07 03:00:35;;;;;;;45.95;25.40;;;;;;;9.02;100.00;101335.16;4995145;28;20054;-83
2023/01/07 03:03:27;;;;;;;48.58;25.75;;;;;;;9.02;100.00;101335.16;5006624;28;20046;-84
2023/01/07 03:06:33;;;;;;;51.35;26.58;;;;;;;9.02;100.00;101333.44;5012281;28;20052;-83
2023/01/07 03:09:25;;;;;;;41.58;24.50;;;;;;;9.05;100.00;101337.84;4971711;28;20050;-83
2023/01/07 03:12:08;;;;;;;42.53;24.95;;;;;;;9.07;100.00;101333.50;4991744;28;20065;-83
2023/01/07 03:14:44;;;;;;;47.63;28.08;;;;;;;9.10;100.00;101336.19;5026837;28;20565;-83
2023/01/07 03:17:18;;;;;;;42.65;25.83;;;;;;;9.10;100.00;101328.31;5010451;28;20046;-83
2023/01/07 03:19:53;;;;;;;45.92;26.75;;;;;;;9.11;100.00;101330.06;4985823;28;20073;-84
2023/01/07 03:22:24;;;;;;;41.33;26.13;;;;;;;9.13;100.00;101326.63;5007736;28;20141;-85
2023/01/07 03:24:55;;;;;;;42.53;24.77;;;;;;;9.13;100.00;101331.88;4978574;28;20050;-84
2023/01/07 03:27:26;;;;;;;42.22;26.13;;;;;;;9.14;100.00;101323.13;4993999;28;20431;-83
2023/01/07 03:29:54;;;;;;;;;;;;;;;9.15;100.00;101324.91;5006841;28;20053;-83
2023/01/07 03:32:29;;;;;;;39.63;25.35;;;;;;;9.16;100.00;101325.78;5027099;28;19921;-83
2023/01/07 03:34:57;;;;;;;36.60;24.83;;;;;;;9.16;100.00;101328.41;5013157;28;20053;-82
2023/01/07 03:37:27;;;;;;;46.20;28.58;;;;;;;9.15;100.00;101314.38;5007521;28;20060;-84
2023/01/07 03:39:58;;;;;;;41.75;26.83;;;;;;;9.15;100.00;101319.66;5010079;28;20050;-83
2023/01/07 03:42:39;;;;;;;37.58;25.65;;;;;;;9.16;100.00;101316.13;4989992;28;20064;-84
2023/01/07 03:45:27;;;;;;;36.33;25.48;;;;;;;9.16;100.00;101316.13;5002675;28;20533;-83
2023/01/07 03:47:57;;;;;;;;;;;;;;;9.16;100.00;101310.88;5020485;28;20053;-83
2023/01/07 03:50:32;;;;;;;40.45;26.80;;;;;;;9.16;100.00;101297.72;4995895;28;19951;-83
2023/01/07 03:52:59;;;;;;;37.20;27.10;;;;;;;9.17;100.00;101298.63;4994139;28;20056;-83
2023/01/07 03:55:28;;;;;;;34.33;25.75;;;;;;;9.16;100.00;101295.09;4984952;28;20038;-83
2023/01/07 03:57:57;;;;;;;37.88;25.65;;;;;;;9.18;100.00;101284.63;4997953;28;20054;-84
2023/01/07 04:00:26;;;;;;;35.15;25.80;;;;;;;9.18;100.00;101293.38;4999936;28;20053;-83
2023/01/07 04:03:01;;;;;;;34.50;25.17;;;;;;;9.19;100.00;101286.41;4980806;28;20046;-83
2023/01/07 04:05:36;;;;;;;30.13;24.58;;;;;;;9.19;100.00;101283.78;5026307;28;20064;-83
2023/01/07 04:08:04;;;;;;;35.95;26.30;;;;;;;9.21;100.00;101289.94;5000117;28;20045;-83
2023/01/07 04:10:35;;;;;;;36.40;26.08;;;;;;;9.20;100.00;101293.41;4988096;28;20049;-84
2023/01/07 04:13:03;;;;;;;36.78;25.02;;;;;;;9.20;100.00;101290.78;5011336;28;20050;-84
2023/01/07 04:15:30;;;;;;;34.33;24.60;;;;;;;9.20;100.00;101290.78;5006370;28;20049;-83
2023/01/07 04:17:58;;;;;;;33.10;24.80;;;;;;;9.19;100.00;101289.03;4994846;28;20057;-84
2023/01/07 04:20:27;;;;;;;34.58;25.27;;;;;;;9.18;100.00;101288.13;4989179;28;20050;-83
2023/01/07 04:22:54;;;;;;;36.58;24.33;;;;;;;9.18;100.00;101287.25;4988491;28;20522;-84
2023/01/07 04:25:22;;;;;;;35.60;25.08;;;;;;;9.19;100.00;101294.28;4980329;28;20157;-85
2023/01/07 04:27:49;;;;;;;32.10;23.90;;;;;;;9.18;100.00;101282.88;4975240;28;20057;-84
2023/01/07 04:30:17;;;;;;;33.92;24.92;;;;;;;9.19;100.00;101289.03;4977202;28;20073;-84
2023/01/07 04:32:44;;;;;;;35.95;25.48;;;;;;;9.20;100.00;101276.75;4994171;28;20058;-84
2023/01/07 04:35:12;;;;;;;35.88;26.67;;;;;;;9.19;100.00;101270.63;5004023;28;20522;-83
2023/01/07 04:37:39;;;;;;;31.10;23.80;;;;;;;9.19;100.00;101260.09;5018531;28;20049;-83
2023/01/07 04:40:07;;;;;;;35.10;24.02;;;;;;;9.17;100.00;101260.06;4995009;28;20045;-82
2023/01/07 04:42:36;;;;;;;30.23;23.45;;;;;;;9.18;100.00;101260.94;4994434;28;20056;-82
2023/01/07 04:45:06;;;;;;;29.40;23.58;;;;;;;9.18;100.00;101255.69;4983189;28;20050;-84
2023/01/07 04:47:33;;;;;;;29.67;23.45;;;;;;;9.18;100.00;101261.81;4988391;28;20056;-84
2023/01/07 04:50:02;;;;;;;32.53;24.55;;;;;;;9.18;100.00;101255.69;4978723;28;20057;-84
2023/01/07 04:52:32;;;;;;;29.35;21.75;;;;;;;9.19;100.00;101257.47;5008336;28;20048;-84
2023/01/07 04:54:59;;;;;;;29.42;22.75;;;;;;;9.17;100.00;101246.94;4995363;28;20049;-84
2023/01/07 04:57:27;;;;;;;27.20;22.00;;;;;;;9.17;100.00;101252.19;4972592;28;20495;-84
2023/01/07 04:59:54;;;;;;;28.20;22.52;;;;;;;9.19;100.00;101257.47;5003594;28;20061;-83
2023/01/07 05:02:21;;;;;;;28.52;21.17;;;;;;;9.18;100.00;101253.06;4974229;28;20049;-84
2023/01/07 05:04:49;;;;;;;30.67;22.75;;;;;;;9.18;100.00;101251.31;5007308;28;20054;-84
2023/01/07 05:07:18;;;;;;;24.63;20.05;;;;;;;9.18;100.00;101248.69;4985627;28;20056;-84
2023/01/07 05:09:47;;;;;;;28.13;21.63;;;;;;;9.18;100.00;101246.06;4994692;28;20054;-85
2023/01/07 05:12:15;;;;;;;26.77;21.58;;;;;;;9.18;100.00;101243.41;4968140;28;20042;-84
2023/01/07 05:14:43;;;;;;;32.40;22.33;;;;;;;9.19;100.00;101246.97;4979902;28;20069;-83
2023/01/07 05:17:11;;;;;;;25.70;20.33;;;;;;;9.18;100.00;101246.06;5005882;28;20048;-83
2023/01/07 05:19:39;;;;;;;28.33;20.60;;;;;;;9.18;100.00;101242.53;4995488;28;20069;-84
2023/01/07 05:22:11;;;;;;;27.63;22.27;;;;;;;9.17;100.00;101239.03;5002243;28;20053;-84
2023/01/07 05:24:40;;;;;;;28.50;20.65;;;;;;;9.17;100.00;101240.78;5013269;28;20042;-83
2023/01/07 05:27:08;;;;;;;25.95;21.05;;;;;;;9.17;100.00;101235.53;4994429;28;20053;-83
2023/01/07 05:29:36;;;;;;;25.70;20.02;;;;;;;9.17;100.00;101233.78;5012872;28;20050;-83
2023/01/07 05:32:05;;;;;;;26.63;21.75;;;;;;;9.19;100.00;101231.19;4987855;28;20065;-82
2023/01/07 05:34:34;;;;;;;24.95;19.45;;;;;;;9.18;100.00;101240.78;5022270;28;20630;-83
2023/01/07 05:37:02;;;;;;;25.70;20.20;;;;;;;9.20;100.00;101247.84;5005642;28;20054;-84
2023/01/07 05:39:30;;;;;;;24.52;19.13;;;;;;;9.18;100.00;101240.78;4999756;28;20062;-83
2023/01/07 05:41:59;;;;;;;29.63;18.92;;;;;;;9.18;100.00;101239.91;5004687;28;20057;-85
2023/01/07 05:44:47;;;;;;;21.80;18.35;;;;;;;9.18;100.00;101239.91;5015892;28;20070;-84
2023/01/07 05:47:14;;;;;;;21.30;18.50;;;;;;;9.18;100.00;101237.28;4999538;28;20054;-84
2023/01/07 05:49:42;;;;;;;24.20;17.83;;;;;;;9.19;100.00;101241.69;5009464;28;20054;-84
2023/01/07 05:52:09;;;;;;;19.70;16.40;;;;;;;9.19;100.00;101233.81;5013815;28;20069;-84
2023/01/07 05:54:36;;;;;;;26.30;17.75;;;;;;;9.19;100.00;101239.06;5007581;28;20065;-83
2023/01/07 05:57:04;;;;;;;20.70;17.63;;;;;;;9.18;100.00;101234.66;5026500;28;20060;-83
2023/01/07 05:59:33;;;;;;;21.13;16.10;;;;;;;9.18;100.00;101247.81;4989085;28;20065;-84
2023/01/07 06:02:01;;;;;;;19.35;15.70;;;;;;;9.17;100.00;101239.03;4999106;28;20046;-84
2023/01/07 06:04:28;;;;;;;18.55;15.98;;;;;;;9.17;100.00;101238.16;4998833;28;20412;-83
2023/01/07 06:06:55;;;;;;;19.10;16.27;;;;;;;9.17;100.00;101233.78;4994716;28;20050;-83
2023/01/07 06:09:23;;;;;;;22.48;15.77;;;;;;;9.17;100.00;101236.41;5005562;28;20057;-83
2023/01/07 06:11:50;;;;;;;19.67;14.88;;;;;;;9.18;100.00;101232.03;4985223;28;20057;-83
2023/01/07 06:14:18;;;;;;;19.27;14.52;;;;;;;9.18;100.00;101229.41;4973675;28;20069;-84
2023/01/07 06:16:45;;;;;;;16.75;14.02;;;;;;;9.18;100.00;101224.13;4995618;28;20069;-85
2023/01/07 06:19:12;;;;;;;17.45;14.88;;;;;;;9.17;100.00;101227.66;4971945;28;20046;-84
2023/01/07 06:21:41;;;;;;;16.20;14.18;;;;;;;9.17;100.00;101225.00;5012245;28;20062;-83
2023/01/07 06:24:10;;;;;;;20.20;14.73;;;;;;;9.19;100.00;101220.66;4989221;28;20050;-84
2023/01/07 06:26:37;;;;;;;18.00;14.40;;;;;;;9.19;100.00;101220.66;5003477;28;20454;-83
2023/01/07 06:29:04;;;;;;;19.42;14.13;;;;;;;9.18;100.00;101211.00;4998294;28;20054;-82
2023/01/07 06:31:32;;;;;;;22.20;15.18;;;;;;;9.17;100.00;101211.88;4975336;28;20082;-83
2023/01/07 06:33:59;;;;;;;16.85;13.52;;;;;;;9.18;100.00;101211.00;4990895;28;20503;-82
2023/01/07 06:36:27;;;;;;;17.13;13.70;;;;;;;9.18;100.00;101216.25;5008113;28;20049;-83
2023/01/07 06:38:54;;;;;;;14.48;12.65;;;;;;;9.17;100.00;101212.75;5009370;28;20046;-83
2023/01/07 06:41:21;;;;;;;14.85;12.38;;;;;;;9.17;100.00;101206.63;4991249;28;20526;-83
2023/01/07 06:43:49;;;;;;;16.60;13.98;;;;;;;9.16;100.00;101208.34;5011358;28;20380;-82
2023/01/07 06:46:17;;;;;;;18.20;12.82;;;;;;;9.16;100.00;101212.72;4988058;28;20041;-83
2023/01/07 06:48:44;;;;;;;14.50;11.93;;;;;;;9.16;100.00;101207.47;5004133;28;20503;-83
2023/01/07 06:51:11;;;;;;;14.77;12.57;;;;;;;9.15;100.00;101208.34;4994004;28;20406;-84
2023/01/07 06:53:39;;;;;;;13.27;11.75;;;;;;;9.16;100.00;101207.47;5011042;28;20559;-84
2023/01/07 06:56:06;;;;;;;17.63;12.73;;;;;;;9.15;100.00;101210.97;4985519;28;20404;-84
2023/01/07 06:58:33;;;;;;;13.77;11.45;;;;;;;9.15;100.00;101197.81;4980624;28;20054;-83
2023/01/07 07:01:05;;;;;;;16.52;11.77;;;;;;;9.13;100.00;101205.69;4979448;28;20514;-83
2023/01/07 07:03:33;;;;;;;15.02;11.10;;;;;;;9.14;100.00;101204.81;5009372;28;20045;-83
2023/01/07 07:06:00;;;;;;;15.50;12.70;;;;;;;9.12;100.00;101198.63;5005990;28;20048;-85
2023/01/07 07:08:27;;;;;;;15.10;12.45;;;;;;;9.13;100.00;101202.13;5019102;28;20041;-83
2023/01/07 07:10:55;;;;;;;16.67;11.45;;;;;;;9.11;100.00;101196.88;4997088;28;20045;-83
2023/01/07 07:13:22;;;;;;;15.57;11.43;;;;;;;9.10;100.00;101195.09;5002365;28;20049;-83
2023/01/07 07:15:50;;;;;;;13.07;11.43;;;;;;;9.10;100.00;101192.47;5015862;28;20041;-84
2023/01/07 07:18:17;;;;;;;12.27;10.27;;;;;;;9.08;100.00;101193.31;4999770;28;20053;-83
2023/01/07 07:20:45;;;;;;;15.85;11.05;;;;;;;9.08;100.00;101188.06;4991160;28;20049;-83
2023/01/07 07:23:13;;;;;;;14.80;11.27;;;;;;;9.07;100.00;101194.16;4993712;28;20058;-83
2023/01/07 07:25:41;;;;;;;17.48;11.38;;;;;;;9.05;100.00;101190.63;5012733;28;20073;-83
2023/01/07 07:28:09;;;;;;;12.82;10.50;;;;;;;9.06;100.00;101195.06;4987478;28;20056;-83
2023/01/07 07:30:36;;;;;;;11.70;10.50;;;;;;;9.04;100.00;101191.53;4999034;28;20050;-83
2023/01/07 07:33:13;;;;;;;13.88;11.23;;;;;;;9.03;100.00;101187.09;5007490;28;20048;-83
2023/01/07 07:35:41;;;;;;;15.38;10.88;;;;;;;9.02;100.00;101185.31;5007142;28;20057;-83
2023/01/07 07:38:08;;;;;;;13.77;10.90;;;;;;;9.02;100.00;101188.88;5009865;28;20054;-83
2023/01/07 07:40:36;;;;;;;12.82;10.13;;;;;;;9.02;100.00;101180.97;5011991;28;20510;-83
2023/01/07 07:43:03;;;;;;;11.95;10.50;;;;;;;9.03;100.00;101189.75;4985279;28;20054;-83
2023/01/07 07:45:40;;;;;;;11.20;10.10;;;;;;;9.02;100.00;101185.31;4995755;28;20581;-83
2023/01/07 07:48:08;;;;;;;13.13;10.90;;;;;;;9.03;100.00;101184.47;4980996;28;20050;-82
2023/01/07 07:50:36;;;;;;;12.80;10.02;;;;;;;9.03;100.00;101180.09;5004900;28;20046;-83
2023/01/07 07:53:03;;;;;;;11.70;10.02;;;;;;;9.03;100.00;101187.97;5016545;28;20080;-83
2023/01/07 07:55:31;;;;;;;15.32;9.73;;;;;;;9.04;100.00;101189.75;5007861;28;20033;-83
2023/01/07 07:57:58;;;;;;;11.32;9.82;;;;;;;9.05;100.00;101170.47;4983676;28;20046;-83
2023/01/07 08:00:25;;;;;;;14.93;9.75;;;;;;;9.05;100.00;101164.34;5027243;28;20399;-83
2023/01/07 08:02:58;;;;;;;10.27;9.13;;;;;;;9.05;100.00;101162.59;4990871;28;20542;-82
2023/01/07 08:05:26;;;;;;;12.55;8.50;;;;;;;9.07;100.00;101162.63;4980878;28;20034;-83
2023/01/07 08:07:53;;;;;;;10.93;9.80;;;;;;;9.08;100.00;101167.03;4996178;28;20492;-82
2023/01/07 08:10:21;;;;;;;10.35;9.35;;;;;;;9.07;100.00;101157.38;5023877;28;20049;-83
2023/01/07 08:12:51;;;;;;;11.40;9.30;;;;;;;9.06;100.00;101163.50;4977223;28;20065;-84
2023/01/07 08:15:19;;;;;;;9.70;8.50;;;;;;;9.06;100.00;101164.38;5005667;28;20489;-83
2023/01/07 08:17:46;;;;;;;15.13;8.77;;;;;;;9.07;100.00;101163.50;4982298;28;20057;-83
2023/01/07 08:20:14;;;;;;;10.10;8.75;;;;;;;9.08;100.00;101151.25;5010264;28;20050;-82
2023/01/07 08:22:41;;;;;;;11.50;8.55;;;;;;;9.06;100.00;101150.38;4979355;28;20053;-85
2023/01/07 08:25:09;;;;;;;9.25;8.27;;;;;;;9.05;100.00;101153.84;5009357;28;20487;-85
2023/01/07 08:27:36;;;;;;;10.57;8.18;;;;;;;9.06;100.00;101150.38;5011180;28;20068;-84
2023/01/07 08:30:04;;;;;;;10.85;8.85;;;;;;;9.06;100.00;101158.25;4997331;28;20050;-85
2023/01/07 08:32:31;;;;;;;10.20;7.57;;;;;;;9.06;100.00;101156.50;4989589;28;20050;-84
2023/01/07 08:34:58;;;;;;;9.45;7.20;;;;;;;9.06;100.00;101150.38;4972380;28;20046;-82
2023/01/07 08:37:29;;;;;;;9.52;7.80;;;;;;;9.05;100.00;101149.44;4991020;28;20042;-83
2023/01/07 08:39:56;;;;;;;9.85;7.65;;;;;;;9.07;100.00;101146.84;4991093;28;20415;-82
2023/01/07 08:42:23;;;;;;;7.78;7.07;;;;;;;9.06;100.00;101137.22;5010483;28;20721;-83
2023/01/07 08:44:51;;;;;;;12.15;7.93;;;;;;;9.06;100.00;101134.59;4989809;28;20065;-82
2023/01/07 08:47:18;;;;;;;13.45;7.47;;;;;;;9.08;100.00;101132.84;4986326;28;20050;-82
2023/01/07 08:49:45;;;;;;;8.52;7.03;;;;;;;9.09;100.00;101138.16;4987996;28;20046;-83
2023/01/07 08:52:13;;;;;;;7.78;6.60;;;;;;;9.10;100.00;101132.00;5029158;28;20042;-83
2023/01/07 08:54:40;;;;;;;6.80;6.10;;;;;;;9.11;100.00;101127.63;4981627;28;20049;-83
2023/01/07 08:57:08;;;;;;;7.72;6.72;;;;;;;9.13;100.00;101131.16;4986859;28;20700;-83
2023/01/07 08:59:37;;;;;;;10.25;6.38;;;;;;;9.16;100.00;101136.47;5015839;28;20050;-84
2023/01/07 09:02:16;;;;;;;7.32;6.35;;;;;;;9.19;100.00;101128.63;5005922;28;20049;-83
2023/01/07 09:04:44;;;;;;;7.15;5.65;;;;;;;9.22;100.00;101126.03;4988480;28;20522;-82
2023/01/07 09:07:11;;;;;;;7.35;5.82;;;;;;;9.26;100.00;101126.94;5017602;28;20045;-82
2023/01/07 09:09:40;;;;;;;7.40;5.63;;;;;;;9.29;100.00;101127.88;4980464;28;20065;-83
2023/01/07 09:12:10;;;;;;;7.50;6.00;;;;;;;9.31;100.00;101115.63;5027521;28;20041;-84
2023/01/07 09:14:37;;;;;;;6.65;6.05;;;;;;;9.34;100.00;101126.19;5029575;28;20053;-84
2023/01/07 09:17:04;;;;;;;8.13;5.22;;;;;;;9.35;100.00;101125.31;4991138;28;20041;-84
2023/01/07 09:19:32;;;;;;;8.57;5.43;;;;;;;9.35;100.00;101121.81;4978395;28;20042;-85
2023/01/07 09:21:59;;;;;;;8.40;5.32;;;;;;;9.35;100.00;101125.31;5007073;28;20054;-84
2023/01/07 09:24:26;;;;;;;5.72;5.20;;;;;;;9.35;100.00;101121.81;5015281;28;20475;-85
2023/01/07 09:26:54;;;;;;;7.90;5.45;;;;;;;9.35;100.00;101120.06;4997858;28;20530;-82
2023/01/07 09:29:21;;;;;;;6.32;4.75;;;;;;;9.33;100.00;101121.78;5011379;28;20046;-85
2023/01/07 09:31:49;;;;;;;8.52;5.50;;;;;;;9.34;100.00;101130.59;5003805;28;20065;-83
2023/01/07 09:34:16;;;;;;;6.03;5.43;;;;;;;9.33;100.00;101124.41;5007991;28;20046;-84
2023/01/07 09:36:44;;;;;;;6.05;5.50;;;;;;;9.33;100.00;101127.03;4991176;28;20042;-82
2023/01/07 09:39:11;;;;;;;7.72;5.03;;;;;;;9.33;100.00;101113.91;5025473;28;20049;-84
2023/01/07 09:42:01;;;;;;;6.88;5.60;;;;;;;9.34;100.00;101114.81;4988516;28;20058;-82
2023/01/07 09:44:29;;;;;;;6.05;5.20;;;;;;;9.33;100.00;101110.41;5012084;28;20090;-83
2023/01/07 09:46:56;;;;;;;6.47;4.88;;;;;;;9.31;100.00;101114.75;5002988;28;20503;-84
2023/01/07 09:49:28;;;;;;;5.15;4.65;;;;;;;9.28;100.00;101110.34;5008697;28;20057;-82
2023/01/07 09:52:25;;;;;;;5.82;5.32;;;;;;;9.28;100.00;101109.44;4994017;28;20061;-83
2023/01/07 09:55:00;;;;;;;6.97;5.05;;;;;;;9.28;100.00;101110.34;5003229;28;20057;-83
2023/01/07 09:57:28;;;;;;;4.57;4.18;;;;;;;9.27;100.00;101113.81;5008028;28;20037;-83
2023/01/07 09:59:56;;;;;;;5.28;4.60;;;;;;;9.28;100.00;101106.81;4984320;28;20411;-84
2023/01/07 10:03:09;;;;;;;5.93;4.35;;;;;;;9.27;100.00;101105.94;5022081;28;20054;-84
2023/01/07 10:06:00;;;;;;;5.68;4.22;;;;;;;9.29;100.00;101112.09;4988096;28;20052;-84
2023/01/07 10:08:43;;;;;;;5.78;4.47;;;;;;;9.31;100.00;101105.09;4984296;28;20050;-82
2023/01/07 10:11:34;;;;;;;5.88;4.32;;;;;;;9.30;100.00;101100.72;5006435;28;20046;-82
2023/01/07 10:14:25;;;;;;;;;;;;;;;9.31;100.00;101099.84;5007106;28;20046;-83
2023/01/07 10:16:53;;;;;;;5.07;4.22;;;;;;;9.33;100.00;101097.25;5003859;28;20286;-83
2023/01/07 10:19:27;;;;;;;5.25;3.90;;;;;;;9.35;100.00;101087.63;5015687;28;20042;-83
2023/01/07 10:22:01;;;;;;;3.80;3.40;;;;;;;9.34;100.00;101086.75;5000491;28;20054;-83
2023/01/07 10:24:54;;;;;;;4.55;3.67;;;;;;;9.34;100.00;101086.75;5000381;28;20037;-83
2023/01/07 10:27:31;;;;;;;5.05;4.50;;;;;;;9.35;100.00;101074.47;5003874;28;20057;-83
2023/01/07 10:30:02;;;;;;;4.43;3.67;;;;;;;9.35;100.00;101082.38;5011662;28;20034;-82
2023/01/07 10:32:32;;;;;;;3.38;3.10;;;;;;;9.34;100.00;101075.34;4990148;28;20404;-83
2023/01/07 10:35:00;;;;;;;3.33;3.13;;;;;;;9.33;100.00;101077.06;5007823;28;20411;-82
2023/01/07 10:37:37;;;;;;;3.42;3.13;;;;;;;9.33;100.00;101077.06;4967754;28;20050;-82
2023/01/07 10:40:14;;;;;;;3.47;3.10;;;;;;;9.34;100.00;101070.97;4994243;28;20414;-83
2023/01/07 10:43:03;;;;;;;4.10;3.28;;;;;;;9.37;100.00;101067.47;4998501;28;20413;-82
2023/01/07 10:45:54;;;;;;;3.85;3.45;;;;;;;9.42;100.00;101057.03;5016870;28;20062;-84
2023/01/07 10:48:45;;;;;;;4.05;3.20;;;;;;;9.45;100.00;101057.03;4993337;28;20061;-82
2023/01/07 10:51:50;;;;;;;3.42;3.13;;;;;;;9.48;100.00;101046.56;5019555;28;20092;-84
2023/01/07 10:54:45;;;;;;;3.75;3.38;;;;;;;9.50;100.00;101032.56;4969139;28;20719;-84
2023/01/07 10:57:21;;;;;;;3.13;2.67;;;;;;;9.51;100.00;101023.81;5021729;28;20125;-84
2023/01/07 11:00:05;;;;;;;4.95;3.40;;;;;;;9.50;100.00;101032.56;5007371;28;20053;-83
2023/01/07 11:02:32;;;;;;;3.30;2.90;;;;;;;9.50;100.00;101029.06;5013523;28;20057;-84
2023/01/07 11:05:00;;;;;;;4.40;2.50;;;;;;;9.51;100.00;101017.69;4982966;28;20057;-87
2023/01/07 11:07:35;;;;;;;4.93;3.10;;;;;;;9.52;100.00;101011.53;5009289;28;20049;-85
2023/01/07 11:10:04;;;;;;;4.75;2.83;;;;;;;9.54;100.00;101007.16;5010581;28;20045;-86
2023/01/07 11:12:49;;;;;;;2.40;2.20;;;;;;;9.56;100.00;101005.44;4990339;28;20057;-86
2023/01/07 11:15:25;;;;;;;3.58;2.47;;;;;;;9.58;100.00;101006.31;5007833;28;20060;-86
2023/01/07 11:18:11;;;;;;;3.72;2.40;;;;;;;9.60;100.00;100983.53;4976271;28;20057;-86
2023/01/07 11:20:50;;;;;;;2.63;2.42;;;;;;;9.63;100.00;100986.22;5024512;28;20060;-86
2023/01/07 11:23:42;;;;;;;3.90;2.17;;;;;;;9.66;100.00;100978.34;5012401;28;20053;-87
2023/01/07 11:26:13;;;;;;;4.60;2.42;;;;;;;9.67;100.00;100974.84;5017779;28;20056;-86
2023/01/07 11:28:52;;;;;;;4.30;2.47;;;;;;;9.68;100.00;100968.72;4991630;28;20054;-85
2023/01/07 11:31:22;;;;;;;2.30;2.20;;;;;;;9.73;100.00;100966.13;5012820;28;20453;-84
2023/01/07 11:33:52;;;;;;;2.70;2.50;;;;;;;9.73;100.00;100974.00;5011905;28;20523;-86
2023/01/07 11:36:41;;;;;;;3.07;2.33;;;;;;;9.75;100.00;100965.28;5006846;28;20050;-84
2023/01/07 11:39:17;;;;;;;2.55;2.25;;;;;;;9.74;100.00;100946.84;5013930;28;20312;-86